createdAt,value
2018-12-23T00:00:15.822Z,865.9
2018-12-23T00:01:15.734Z,865.87
2018-12-23T00:02:15.730Z,866.16
2018-12-23T00:03:15.747Z,866.56
2018-12-23T00:05:35.616Z,866.78
2018-12-23T00:06:35.642Z,867.64
2018-12-23T00:07:35.602Z,868.18
2018-12-23T00:08:35.632Z,868.13
2018-12-23T00:09:35.607Z,868.7
2018-12-23T00:10:35.622Z,869.1
2018-12-23T00:11:35.623Z,869.58
2018-12-23T00:12:35.646Z,870.19
2018-12-23T00:13:35.614Z,870.59
2018-12-23T00:14:35.597Z,871.12
2018-12-23T00:15:35.622Z,871.09
2018-12-23T00:16:35.613Z,871.52
2018-12-23T00:17:35.624Z,871.52
2018-12-23T00:18:35.638Z,871.5
2018-12-23T00:19:35.627Z,871.2
2018-12-23T00:20:35.621Z,871.05
2018-12-23T00:21:35.623Z,871.28
2018-12-23T00:22:35.648Z,871.49
2018-12-23T00:23:35.640Z,871.61
2018-12-23T00:24:35.632Z,871.41
2018-12-23T00:25:35.685Z,871.3
2018-12-23T00:26:35.650Z,871.23
2018-12-23T00:27:35.639Z,870.85
2018-12-23T00:28:35.640Z,870.01
2018-12-23T00:29:35.627Z,870.1
2018-12-23T00:30:35.660Z,869.56
2018-12-23T00:31:35.624Z,869.6
2018-12-23T00:32:35.677Z,869.09
2018-12-23T00:33:35.629Z,868.84
2018-12-23T00:34:35.625Z,868.77
2018-12-23T00:35:35.642Z,868.34
2018-12-23T00:36:35.647Z,867.93
2018-12-23T00:37:35.670Z,867.45
2018-12-23T00:38:35.676Z,866.82
2018-12-23T00:39:35.672Z,866.17
2018-12-23T00:40:35.639Z,865.49
2018-12-23T00:41:36.659Z,864.73
2018-12-23T00:42:35.634Z,864.06
2018-12-23T00:43:35.656Z,863.23
2018-12-23T00:44:35.666Z,862.6
2018-12-23T00:45:35.686Z,862.24
2018-12-23T00:46:35.655Z,861.76
2018-12-23T00:47:35.664Z,861.2
2018-12-23T00:48:35.665Z,860.09
2018-12-23T00:49:35.666Z,859.6
2018-12-23T00:50:35.662Z,858.83
2018-12-23T00:51:35.654Z,857.26
2018-12-23T00:52:35.678Z,856.42
2018-12-23T00:53:35.827Z,855.61
2018-12-23T00:54:35.676Z,854.94
2018-12-23T00:55:35.699Z,854.56
2018-12-23T00:56:35.676Z,853.94
2018-12-23T00:57:35.677Z,853.75
2018-12-23T00:58:35.691Z,852.75
2018-12-23T00:59:35.686Z,852.68
2018-12-23T01:00:35.680Z,852.04
2018-12-23T01:01:35.674Z,851.58
2018-12-23T01:02:35.680Z,850.73
2018-12-23T01:03:35.689Z,850.93
2018-12-23T01:04:35.721Z,850.5
2018-12-23T01:05:35.703Z,850.23
2018-12-23T01:06:35.680Z,849.38
2018-12-23T01:07:35.686Z,849.41
2018-12-23T01:08:35.693Z,848.86
2018-12-23T01:09:36.276Z,848.73
2018-12-23T01:10:35.714Z,848.59
2018-12-23T01:11:35.707Z,848.69
2018-12-23T01:12:35.687Z,848.38
2018-12-23T01:13:35.690Z,848.71
2018-12-23T01:14:35.683Z,848.57
2018-12-23T01:15:35.691Z,847.79
2018-12-23T01:16:35.696Z,847.41
2018-12-23T01:17:35.704Z,847.85
2018-12-23T01:18:35.710Z,846.89
2018-12-23T01:19:35.696Z,846.92
2018-12-23T01:20:35.723Z,846.92
2018-12-23T01:21:35.759Z,846.1
2018-12-23T01:22:35.700Z,846.56
2018-12-23T01:23:35.705Z,846.38
2018-12-23T01:24:35.713Z,846.8
2018-12-23T01:25:35.699Z,846.9
2018-12-23T01:26:35.716Z,847.69
2018-12-23T01:27:35.705Z,847.48
2018-12-23T01:28:35.702Z,847.59
2018-12-23T01:29:35.693Z,847.9
2018-12-23T01:30:35.701Z,848.18
2018-12-23T01:31:35.696Z,848.08
2018-12-23T01:32:35.739Z,848.12
2018-12-23T01:33:35.728Z,848.12
2018-12-23T01:34:37.089Z,847.85
2018-12-23T01:35:37.329Z,848.13
2018-12-23T01:36:38.416Z,847.79
2018-12-23T01:37:35.722Z,847.76
2018-12-23T01:38:35.713Z,847.46
2018-12-23T01:39:35.730Z,847.6
2018-12-23T01:40:44.866Z,847.71
2018-12-23T01:41:35.705Z,848.04
2018-12-23T01:42:35.721Z,848.4
2018-12-23T01:43:35.745Z,847.5
2018-12-23T01:44:35.736Z,847.74
2018-12-23T01:45:35.720Z,847.21
2018-12-23T01:46:35.751Z,847.24
2018-12-23T01:47:35.752Z,846.84
2018-12-23T01:48:35.722Z,846.71
2018-12-23T01:49:35.732Z,846.33
2018-12-23T01:50:35.743Z,846.07
2018-12-23T01:51:35.749Z,845.94
2018-12-23T01:52:35.735Z,844.94
2018-12-23T01:53:35.755Z,844.7
2018-12-23T01:54:35.744Z,844.44
2018-12-23T01:55:35.763Z,843.93
2018-12-23T01:56:35.742Z,843.06
2018-12-23T01:57:35.744Z,843.21
2018-12-23T01:58:35.748Z,842.67
2018-12-23T01:59:35.779Z,842.58
2018-12-23T02:00:35.760Z,843.06
2018-12-23T02:01:35.808Z,842.94
2018-12-23T02:02:35.752Z,842.66
2018-12-23T02:03:36.068Z,842.73
2018-12-23T02:04:35.788Z,842.34
2018-12-23T02:05:35.775Z,842.29
2018-12-23T02:06:35.759Z,841.98
2018-12-23T02:07:35.772Z,842.01
2018-12-23T02:08:35.755Z,841.59
2018-12-23T02:09:35.792Z,840.91
2018-12-23T02:10:35.786Z,841.22
2018-12-23T02:11:35.766Z,840.66
2018-12-23T02:12:35.777Z,839.89
2018-12-23T02:13:35.782Z,839.65
2018-12-23T02:14:35.777Z,838.95
2018-12-23T02:15:35.794Z,838.86
2018-12-23T02:16:36.097Z,838.21
2018-12-23T02:17:35.777Z,837.82
2018-12-23T02:18:35.773Z,837.21
2018-12-23T02:19:35.776Z,836.62
2018-12-23T02:20:35.815Z,835.84
2018-12-23T02:21:35.858Z,834.45
2018-12-23T02:22:35.804Z,834.47
2018-12-23T02:23:35.787Z,833.99
2018-12-23T02:24:35.774Z,833.55
2018-12-23T02:25:35.828Z,832.29
2018-12-23T02:26:35.829Z,832.2
2018-12-23T02:27:35.822Z,831.75
2018-12-23T02:28:35.775Z,831.44
2018-12-23T02:29:35.807Z,830.51
2018-12-23T02:30:35.793Z,830.25
2018-12-23T02:31:35.800Z,829.58
2018-12-23T02:32:35.814Z,828.58
2018-12-23T02:33:35.797Z,828
2018-12-23T02:34:35.784Z,828.36
2018-12-23T02:35:35.830Z,827.47
2018-12-23T02:36:35.817Z,827.85
2018-12-23T02:37:35.811Z,827.01
2018-12-23T02:38:35.784Z,826.74
2018-12-23T02:39:35.789Z,826.69
2018-12-23T02:40:35.787Z,826.22
2018-12-23T02:41:35.824Z,826.24
2018-12-23T02:42:35.833Z,826.69
2018-12-23T02:43:35.814Z,826.26
2018-12-23T02:44:35.818Z,826.16
2018-12-23T02:45:35.827Z,825.16
2018-12-23T02:46:35.818Z,825.05
2018-12-23T02:47:35.829Z,825.18
2018-12-23T02:48:35.836Z,824.21
2018-12-23T02:49:35.905Z,823.75
2018-12-23T02:50:35.855Z,823.03
2018-12-23T02:51:35.816Z,823.03
2018-12-23T02:52:35.840Z,821.98
2018-12-23T02:53:35.995Z,821.9
2018-12-23T02:54:35.843Z,821.53
2018-12-23T02:55:35.840Z,820.79
2018-12-23T02:56:35.866Z,820.61
2018-12-23T02:57:35.898Z,819.89
2018-12-23T02:58:35.863Z,819.67
2018-12-23T02:59:35.842Z,819.65
2018-12-23T03:00:35.874Z,819.48
2018-12-23T03:01:35.866Z,819.24
2018-12-23T03:02:35.899Z,818.65
2018-12-23T03:03:35.851Z,818.75
2018-12-23T03:04:36.043Z,818.07
2018-12-23T03:05:35.843Z,817.83
2018-12-23T03:06:35.837Z,817.28
2018-12-23T03:07:35.843Z,816.93
2018-12-23T03:08:35.863Z,816.72
2018-12-23T03:09:35.844Z,816.56
2018-12-23T03:10:35.860Z,816.39
2018-12-23T03:11:35.867Z,815.23
2018-12-23T03:12:35.852Z,814.77
2018-12-23T03:13:35.834Z,814.14
2018-12-23T03:14:35.866Z,814.01
2018-12-23T03:15:35.857Z,813.24
2018-12-23T03:16:35.840Z,813.18
2018-12-23T03:17:35.842Z,812.73
2018-12-23T03:18:35.847Z,812.17
2018-12-23T03:19:35.859Z,811.63
2018-12-23T03:20:35.867Z,811.59
2018-12-23T03:21:36.064Z,810.7
2018-12-23T03:22:35.871Z,809.95
2018-12-23T03:23:35.868Z,808.97
2018-12-23T03:24:35.956Z,808.68
2018-12-23T03:25:35.863Z,807.8
2018-12-23T03:26:35.884Z,807.47
2018-12-23T03:31:05.883Z,804.73
2018-12-23T03:32:05.894Z,803.45
2018-12-23T03:33:05.892Z,802.57
2018-12-23T03:34:05.891Z,801.25
2018-12-23T03:35:05.898Z,801.01
2018-12-23T03:36:14.713Z,800.41
2018-12-23T03:37:05.897Z,799.58
2018-12-23T03:38:05.916Z,799.43
2018-12-23T03:39:05.875Z,799.36
2018-12-23T03:40:05.899Z,798.72
2018-12-23T03:41:05.881Z,798.4
2018-12-23T03:42:05.917Z,797.44
2018-12-23T03:43:05.905Z,796.68
2018-12-23T03:44:05.891Z,796.8
2018-12-23T03:45:05.881Z,796.52
2018-12-23T03:46:05.920Z,796.13
2018-12-23T03:47:05.884Z,796.61
2018-12-23T03:48:05.918Z,796.58
2018-12-23T03:49:07.964Z,797.15
2018-12-23T03:50:05.906Z,796.87
2018-12-23T03:51:05.901Z,796.84
2018-12-23T03:52:05.916Z,796.68
2018-12-23T03:53:05.914Z,796.79
2018-12-23T03:54:05.905Z,796.36
2018-12-23T03:55:05.905Z,796.47
2018-12-23T03:56:05.909Z,796.79
2018-12-23T03:57:05.914Z,796.8
2018-12-23T03:58:05.902Z,797.14
2018-12-23T03:59:05.906Z,796.68
2018-12-23T04:00:05.910Z,796.52
2018-12-23T04:01:05.915Z,797.49
2018-12-23T04:02:05.912Z,797.45
2018-12-23T04:03:05.902Z,797.83
2018-12-23T04:04:05.923Z,798.04
2018-12-23T04:05:05.912Z,797.8
2018-12-23T04:06:05.935Z,798.08
2018-12-23T04:07:06.247Z,798.39
2018-12-23T04:08:05.933Z,798.1
2018-12-23T04:09:05.921Z,798.87
2018-12-23T04:10:05.941Z,798.69
2018-12-23T04:11:05.913Z,799.27
2018-12-23T04:12:05.911Z,799.43
2018-12-23T04:13:05.930Z,798.98
2018-12-23T04:14:05.913Z,799.64
2018-12-23T04:15:05.959Z,799.39
2018-12-23T04:16:05.923Z,800.3
2018-12-23T04:17:05.945Z,800.62
2018-12-23T04:18:05.964Z,800.48
2018-12-23T04:19:05.949Z,800.83
2018-12-23T04:20:05.939Z,801.22
2018-12-23T04:21:05.937Z,800.67
2018-12-23T04:22:05.953Z,800.95
2018-12-23T04:23:05.932Z,800.69
2018-12-23T04:24:05.925Z,800.45
2018-12-23T04:25:05.935Z,800.28
2018-12-23T04:26:05.917Z,799.72
2018-12-23T04:27:05.948Z,799.25
2018-12-23T04:28:05.977Z,798.47
2018-12-23T04:29:05.972Z,797.59
2018-12-23T04:30:05.931Z,797.1
2018-12-23T04:31:05.959Z,796.24
2018-12-23T04:32:05.943Z,796.01
2018-12-23T04:33:05.950Z,795.87
2018-12-23T04:34:05.949Z,795.94
2018-12-23T04:35:05.941Z,795.74
2018-12-23T04:36:05.998Z,795.57
2018-12-23T04:37:05.948Z,795.27
2018-12-23T04:38:05.950Z,795.57
2018-12-23T04:39:05.991Z,795.66
2018-12-23T04:40:05.937Z,795.66
2018-12-23T04:41:05.962Z,795.99
2018-12-23T04:42:05.974Z,796.24
2018-12-23T04:43:05.980Z,795.93
2018-12-23T04:44:05.961Z,796.2
2018-12-23T04:45:05.989Z,796.21
2018-12-23T04:46:05.970Z,796.33
2018-12-23T04:47:05.944Z,796.28
2018-12-23T04:48:06.017Z,796.75
2018-12-23T04:49:05.978Z,795.8
2018-12-23T04:50:05.959Z,796.48
2018-12-23T04:51:05.991Z,795.99
2018-12-23T04:52:05.957Z,796.54
2018-12-23T04:56:35.215Z,796.78
2018-12-23T04:57:35.187Z,796.8
2018-12-23T04:58:35.222Z,796.63
2018-12-23T04:59:35.230Z,796.11
2018-12-23T05:00:35.193Z,795.87
2018-12-23T05:01:35.266Z,796.06
2018-12-23T05:02:35.205Z,795.17
2018-12-23T05:03:42.472Z,795.36
2018-12-23T05:04:35.196Z,794.53
2018-12-23T05:05:35.216Z,793.92
2018-12-23T05:06:42.992Z,794.26
2018-12-23T05:07:35.216Z,794.42
2018-12-23T05:08:35.307Z,794.81
2018-12-23T05:09:35.194Z,794.13
2018-12-23T05:10:35.207Z,794.12
2018-12-23T05:11:35.207Z,794.41
2018-12-23T05:12:35.215Z,794.52
2018-12-23T05:13:35.227Z,794.43
2018-12-23T05:14:35.196Z,794.91
2018-12-23T05:15:35.221Z,794.6
2018-12-23T05:16:35.199Z,795.63
2018-12-23T05:17:35.229Z,795.32
2018-12-23T05:18:35.233Z,795.89
2018-12-23T05:19:35.207Z,796.66
2018-12-23T05:20:35.225Z,795.88
2018-12-23T05:21:35.206Z,796.47
2018-12-23T05:22:35.241Z,797.21
2018-12-23T05:23:35.241Z,797.45
2018-12-23T05:24:35.252Z,798.14
2018-12-23T05:25:35.240Z,798.28
2018-12-23T05:26:35.212Z,798.4
2018-12-23T05:27:35.241Z,799.23
2018-12-23T05:28:35.254Z,799.82
2018-12-23T05:29:35.248Z,800.38
2018-12-23T05:30:35.230Z,801.16
2018-12-23T05:31:35.255Z,801.5
2018-12-23T05:32:35.243Z,801.92
2018-12-23T05:33:35.253Z,802.38
2018-12-23T05:34:35.258Z,802.27
2018-12-23T05:35:35.262Z,802.51
2018-12-23T05:36:35.226Z,802.5
2018-12-23T05:37:35.249Z,802.9
2018-12-23T05:38:35.249Z,803.16
2018-12-23T05:39:35.239Z,802.98
2018-12-23T05:40:35.269Z,803.02
2018-12-23T05:41:35.236Z,802.59
2018-12-23T05:42:35.282Z,802.6
2018-12-23T05:43:35.235Z,802.63
2018-12-23T05:44:35.247Z,803.07
2018-12-23T05:45:35.306Z,802.87
2018-12-23T05:46:35.248Z,803
2018-12-23T05:47:35.249Z,802.9
2018-12-23T05:48:35.245Z,802.46
2018-12-23T05:49:35.277Z,802.93
2018-12-23T05:50:35.262Z,803
2018-12-23T05:51:35.265Z,803.34
2018-12-23T05:52:35.253Z,803.24
2018-12-23T05:53:35.261Z,803.41
2018-12-23T05:54:35.365Z,803.69
2018-12-23T05:55:35.285Z,803.6
2018-12-23T05:56:35.253Z,804.05
2018-12-23T05:57:35.294Z,804.66
2018-12-23T06:02:05.417Z,806
2018-12-23T06:03:05.404Z,806.18
2018-12-23T06:04:06.017Z,806.66
2018-12-23T06:05:05.436Z,806.59
2018-12-23T06:06:05.414Z,806.62
2018-12-23T06:07:05.418Z,806.67
2018-12-23T06:08:05.396Z,807.14
2018-12-23T06:09:05.532Z,807.52
2018-12-23T06:10:05.464Z,807.32
2018-12-23T06:11:05.445Z,807.37
2018-12-23T06:12:05.453Z,807.23
2018-12-23T06:13:05.564Z,807.83
2018-12-23T06:14:05.431Z,807.68
2018-12-23T06:18:35.455Z,809.99
2018-12-23T06:19:35.461Z,809.5
2018-12-23T06:20:35.460Z,809.65
2018-12-23T06:21:35.436Z,809.93
2018-12-23T06:22:35.425Z,810.18
2018-12-23T06:23:35.450Z,809.93
2018-12-23T06:24:35.551Z,809.78
2018-12-23T06:25:35.448Z,810.13
2018-12-23T06:26:35.475Z,810.17
2018-12-23T06:27:35.454Z,810.19
2018-12-23T06:28:35.516Z,810.8
2018-12-23T06:29:35.460Z,810.85
2018-12-23T06:31:35.470Z,811.56
2018-12-23T06:32:35.473Z,811.8
2018-12-23T06:33:35.480Z,812.04
2018-12-23T06:34:35.473Z,812.06
2018-12-23T06:35:35.493Z,812.62
2018-12-23T06:36:35.514Z,813.43
2018-12-23T06:37:35.487Z,813.13
2018-12-23T06:38:35.519Z,813.27
2018-12-23T06:39:35.489Z,813.52
2018-12-23T06:40:35.500Z,814.22
2018-12-23T06:41:35.496Z,814.81
2018-12-23T06:42:35.502Z,814.93
2018-12-23T06:43:35.484Z,815.29
2018-12-23T06:44:35.473Z,816.17
2018-12-23T06:45:35.479Z,816.25
2018-12-23T06:46:35.483Z,817.03
2018-12-23T06:47:35.472Z,816.77
2018-12-23T06:48:35.652Z,817.37
2018-12-23T06:49:35.529Z,817.85
2018-12-23T06:50:35.492Z,818.18
2018-12-23T06:51:35.494Z,818.46
2018-12-23T06:52:35.507Z,818.46
2018-12-23T06:53:35.601Z,818.72
2018-12-23T06:54:35.491Z,818.98
2018-12-23T06:55:35.535Z,818.39
2018-12-23T06:56:35.518Z,819.1
2018-12-23T06:57:35.524Z,819.55
2018-12-23T06:58:35.503Z,819.95
2018-12-23T06:59:35.514Z,820.29
2018-12-23T07:00:35.845Z,820.89
2018-12-23T07:01:35.575Z,821.01
2018-12-23T07:02:35.535Z,821.12
2018-12-23T07:03:35.515Z,821.99
2018-12-23T07:04:35.750Z,822.13
2018-12-23T07:09:05.648Z,823.43
2018-12-23T07:10:05.665Z,824.01
2018-12-23T07:11:05.625Z,824.14
2018-12-23T07:12:05.621Z,825.21
2018-12-23T07:13:05.617Z,824.9
2018-12-23T07:14:05.633Z,824.77
2018-12-23T07:15:05.655Z,825.1
2018-12-23T07:16:05.608Z,825.13
2018-12-23T07:17:05.630Z,826.16
2018-12-23T07:18:05.615Z,826.54
2018-12-23T07:19:05.617Z,826.22
2018-12-23T07:20:05.637Z,827.21
2018-12-23T07:21:05.629Z,827.24
2018-12-23T07:29:54.550Z,831.15
2018-12-23T07:30:54.506Z,831.66
2018-12-23T07:31:54.578Z,831.71
2018-12-23T07:32:54.510Z,832.14
2018-12-23T07:33:54.551Z,832.85
2018-12-23T07:34:54.531Z,833.06
2018-12-23T07:35:54.629Z,833
2018-12-23T07:36:54.671Z,833.13
2018-12-23T07:37:54.517Z,833.59
2018-12-23T07:38:54.524Z,833.94
2018-12-23T07:39:54.528Z,834.41
2018-12-23T07:40:54.903Z,834.38
2018-12-23T07:41:54.568Z,834.22
2018-12-23T07:42:54.602Z,834.32
2018-12-23T07:43:54.611Z,834.32
2018-12-23T07:44:54.529Z,835.05
2018-12-23T07:45:54.554Z,834.9
2018-12-23T07:46:54.542Z,835.44
2018-12-23T07:47:54.567Z,835.76
2018-12-23T07:48:54.640Z,836.02
2018-12-23T07:49:54.562Z,836.17
2018-12-23T07:50:54.522Z,836.7
2018-12-23T07:55:24.109Z,837.83
2018-12-23T07:56:24.065Z,837.52
2018-12-23T07:57:24.080Z,837.99
2018-12-23T07:58:24.104Z,837.93
2018-12-23T07:59:24.107Z,838.66
2018-12-23T08:00:24.092Z,838.74
2018-12-23T08:01:24.090Z,839.32
2018-12-23T08:02:24.108Z,839.46
2018-12-23T08:03:24.129Z,840.61
2018-12-23T08:04:24.087Z,841.28
2018-12-23T08:05:24.098Z,841.59
2018-12-23T08:06:24.100Z,842.13
2018-12-23T08:07:24.103Z,842.54
2018-12-23T08:08:24.101Z,843.12
2018-12-23T08:09:24.109Z,843.35
2018-12-23T08:10:24.152Z,843.97
2018-12-23T08:11:24.249Z,844.39
2018-12-23T08:12:24.115Z,845.14
2018-12-23T08:13:24.139Z,845.33
2018-12-23T08:14:24.100Z,845.24
2018-12-23T08:15:24.093Z,846.06
2018-12-23T08:16:24.113Z,846.42
2018-12-23T08:17:24.117Z,847.25
2018-12-23T08:18:24.130Z,847.97
2018-12-23T08:19:24.098Z,848.46
2018-12-23T08:20:24.102Z,848.49
2018-12-23T08:21:24.109Z,849.19
2018-12-23T08:22:24.115Z,849.43
2018-12-23T08:23:24.192Z,849.85
2018-12-23T08:24:24.099Z,850.25
2018-12-23T08:25:24.140Z,850.41
2018-12-23T08:26:24.150Z,851.1
2018-12-23T08:27:24.123Z,850.89
2018-12-23T08:28:24.166Z,851.63
2018-12-23T08:29:24.144Z,851.84
2018-12-23T08:30:24.145Z,852.44
2018-12-23T08:31:24.149Z,853.33
2018-12-23T08:32:24.162Z,853.21
2018-12-23T08:33:24.131Z,854.1
2018-12-23T08:34:24.160Z,854.52
2018-12-23T08:35:24.144Z,854.45
2018-12-23T08:36:24.130Z,855.16
2018-12-23T08:37:24.164Z,855.29
2018-12-23T08:38:24.158Z,855.79
2018-12-23T08:39:24.140Z,856.21
2018-12-23T08:40:24.174Z,856.81
2018-12-23T08:41:24.143Z,857.37
2018-12-23T08:42:24.134Z,857.9
2018-12-23T08:43:24.151Z,858.01
2018-12-23T08:44:24.148Z,858.99
2018-12-23T08:45:24.129Z,859.53
2018-12-23T08:46:24.152Z,860.54
2018-12-23T08:47:24.153Z,860.76
2018-12-23T08:48:24.170Z,861.24
2018-12-23T08:49:24.178Z,862.36
2018-12-23T08:50:24.166Z,862.87
2018-12-23T08:51:24.146Z,863.87
2018-12-23T08:52:24.185Z,864.67
2018-12-23T08:53:24.166Z,865.77
2018-12-23T08:54:24.164Z,866.22
2018-12-23T08:55:24.160Z,867.31
2018-12-23T08:56:24.183Z,868.39
2018-12-23T08:57:24.172Z,868.23
2018-12-23T08:58:24.191Z,869.45
2018-12-23T08:59:24.188Z,869.87
2018-12-23T09:00:24.174Z,870.5
2018-12-23T09:01:24.169Z,871.32
2018-12-23T09:02:24.539Z,872.01
2018-12-23T09:03:24.192Z,872.49
2018-12-23T09:04:24.188Z,873.01
2018-12-23T09:05:24.194Z,873.87
2018-12-23T09:06:24.209Z,874.43
2018-12-23T09:07:27.896Z,874.87
2018-12-23T09:08:24.217Z,875.75
2018-12-23T09:09:24.222Z,876.27
2018-12-23T09:10:24.200Z,877.29
2018-12-23T09:11:24.199Z,877.86
2018-12-23T09:12:24.246Z,879.08
2018-12-23T09:13:24.279Z,880
2018-12-23T09:14:24.219Z,880.48
2018-12-23T09:15:24.232Z,881.43
2018-12-23T09:16:24.232Z,882.77
2018-12-23T09:17:24.219Z,883.48
2018-12-23T09:18:24.245Z,884.01
2018-12-23T09:19:24.513Z,884.44
2018-12-23T09:20:24.217Z,885.62
2018-12-23T09:21:24.204Z,886.37
2018-12-23T09:22:24.196Z,886.82
2018-12-23T09:23:24.238Z,887.75
2018-12-23T09:24:24.239Z,887.97
2018-12-23T09:25:24.213Z,889.28
2018-12-23T09:26:24.212Z,889.93
2018-12-23T09:27:24.228Z,890.13
2018-12-23T09:28:24.247Z,891.45
2018-12-23T09:29:24.240Z,891.53
2018-12-23T09:30:24.210Z,892.26
2018-12-23T09:31:24.248Z,892.63
2018-12-23T09:32:24.257Z,893.24
2018-12-23T09:33:24.227Z,894.27
2018-12-23T09:34:24.230Z,895.16
2018-12-23T09:35:24.244Z,895.54
2018-12-23T09:36:24.234Z,895.64
2018-12-23T09:37:24.295Z,896.01
2018-12-23T09:38:24.252Z,895.85
2018-12-23T09:39:24.262Z,896.52
2018-12-23T09:40:24.244Z,896.06
2018-12-23T09:41:24.282Z,896.6
2018-12-23T09:42:24.241Z,897.44
2018-12-23T09:43:24.219Z,897.74
2018-12-23T09:44:24.269Z,897.52
2018-12-23T09:45:24.241Z,898.73
2018-12-23T09:46:24.433Z,898.9
2018-12-23T09:47:24.231Z,898.9
2018-12-23T09:48:24.243Z,899.65
2018-12-23T09:49:24.554Z,899.85
2018-12-23T09:50:24.290Z,900.65
2018-12-23T09:51:24.236Z,901.14
2018-12-23T09:52:24.237Z,901.21
2018-12-23T09:53:24.297Z,902.12
2018-12-23T09:54:24.256Z,901.7
2018-12-23T09:55:24.286Z,902.58
2018-12-23T09:56:24.239Z,902.9
2018-12-23T09:57:24.277Z,903.33
2018-12-23T09:58:24.244Z,904.69
2018-12-23T09:59:24.253Z,905.23
2018-12-23T10:00:24.275Z,905.51
2018-12-23T10:01:24.281Z,906.42
2018-12-23T10:02:24.282Z,907.51
2018-12-23T10:03:24.259Z,908.97
2018-12-23T10:04:24.254Z,909.64
2018-12-23T10:05:24.272Z,910.26
2018-12-23T10:06:24.277Z,911.01
2018-12-23T10:07:24.290Z,911.81
2018-12-23T10:08:24.305Z,912.57
2018-12-23T10:09:24.294Z,912.91
2018-12-23T10:10:28.298Z,912.96
2018-12-23T10:11:24.642Z,912.61
2018-12-23T10:12:24.325Z,912.51
2018-12-23T10:13:24.303Z,912.31
2018-12-23T10:14:24.288Z,912.57
2018-12-23T10:15:24.295Z,912.65
2018-12-23T10:16:24.295Z,912.64
2018-12-23T10:17:24.283Z,912.57
2018-12-23T10:18:24.281Z,912.17
2018-12-23T10:19:24.311Z,912.16
2018-12-23T10:20:24.296Z,911.81
2018-12-23T10:21:24.298Z,911.66
2018-12-23T10:22:24.315Z,911.22
2018-12-23T10:23:24.310Z,910.59
2018-12-23T10:24:24.313Z,910.22
2018-12-23T10:25:24.326Z,910.38
2018-12-23T10:26:24.304Z,910.5
2018-12-23T10:27:24.305Z,909.52
2018-12-23T10:28:24.408Z,909.49
2018-12-23T10:29:24.330Z,909.74
2018-12-23T10:30:24.300Z,909.12
2018-12-23T10:31:24.326Z,908.82
2018-12-23T10:32:24.295Z,909.21
2018-12-23T10:33:24.310Z,909.66
2018-12-23T10:34:24.294Z,909.48
2018-12-23T10:35:24.330Z,909.78
2018-12-23T10:36:24.288Z,910.3
2018-12-23T10:37:24.305Z,910.91
2018-12-23T10:38:24.339Z,910.82
2018-12-23T10:39:24.325Z,911.68
2018-12-23T10:40:24.322Z,911.92
2018-12-23T10:41:24.343Z,912.25
2018-12-23T10:42:24.343Z,913.3
2018-12-23T10:43:24.311Z,913.52
2018-12-23T10:44:24.325Z,914.81
2018-12-23T10:45:24.313Z,915.55
2018-12-23T10:46:24.316Z,916.64
2018-12-23T10:47:24.336Z,917.47
2018-12-23T10:48:24.315Z,918.61
2018-12-23T10:49:24.309Z,918.73
2018-12-23T10:50:24.356Z,919.62
2018-12-23T10:51:24.322Z,919.9
2018-12-23T10:52:24.355Z,919.62
2018-12-23T10:53:24.335Z,920.03
2018-12-23T10:54:24.356Z,920.65
2018-12-23T10:55:24.324Z,921
2018-12-23T10:56:24.365Z,921.57
2018-12-23T10:57:24.334Z,922
2018-12-23T10:58:24.341Z,922.41
2018-12-23T10:59:24.364Z,922.77
2018-12-23T11:00:24.333Z,923.04
2018-12-23T11:01:25.008Z,922.92
2018-12-23T11:02:24.336Z,923.01
2018-12-23T11:03:24.346Z,923.49
2018-12-23T11:04:24.343Z,923.45
2018-12-23T11:05:24.348Z,924.41
2018-12-23T11:06:24.678Z,924.7
2018-12-23T11:07:24.380Z,925.48
2018-12-23T11:08:26.963Z,926.3
2018-12-23T11:09:24.372Z,926.75
2018-12-23T11:10:24.346Z,927.21
2018-12-23T11:11:24.361Z,927.62
2018-12-23T11:12:24.363Z,928.26
2018-12-23T11:13:24.435Z,929.03
2018-12-23T11:14:24.375Z,929.64
2018-12-23T11:15:24.389Z,930.31
2018-12-23T11:16:24.368Z,930.43
2018-12-23T11:17:24.368Z,931.3
2018-12-23T11:18:24.385Z,931.32
2018-12-23T11:19:24.367Z,931.78
2018-12-23T11:20:24.361Z,932.36
2018-12-23T11:21:24.360Z,932.47
2018-12-23T11:22:24.370Z,933.02
2018-12-23T11:23:24.395Z,933.45
2018-12-23T11:24:24.401Z,933.99
2018-12-23T11:25:24.383Z,934.39
2018-12-23T11:26:24.388Z,934.44
2018-12-23T11:27:24.384Z,935.25
2018-12-23T11:28:24.552Z,935.54
2018-12-23T11:29:24.398Z,935.32
2018-12-23T11:30:24.412Z,935.73
2018-12-23T11:31:24.395Z,935.62
2018-12-23T11:32:24.372Z,935.51
2018-12-23T11:33:24.382Z,935.62
2018-12-23T11:34:24.483Z,935.93
2018-12-23T11:35:24.437Z,936.24
2018-12-23T11:36:24.421Z,936.33
2018-12-23T11:37:24.452Z,936.25
2018-12-23T11:38:24.409Z,936.44
2018-12-23T11:39:24.420Z,936.16
2018-12-23T11:40:24.419Z,936.7
2018-12-23T11:41:24.401Z,937.1
2018-12-23T11:42:24.440Z,937.27
2018-12-23T11:43:24.470Z,937.61
2018-12-23T11:44:24.450Z,938.17
2018-12-23T11:45:24.504Z,938.31
2018-12-23T11:46:24.450Z,938.47
2018-12-23T11:47:24.428Z,938.4
2018-12-23T11:48:24.441Z,938.58
2018-12-23T11:49:24.411Z,939.5
2018-12-23T11:50:24.420Z,939.81
2018-12-23T11:51:24.445Z,939.74
2018-12-23T11:52:24.530Z,940.61
2018-12-23T11:53:24.435Z,940.66
2018-12-23T11:54:24.441Z,941.12
2018-12-23T11:55:24.432Z,941.32
2018-12-23T11:56:24.448Z,941.16
2018-12-23T11:57:24.462Z,941.94
2018-12-23T11:58:24.440Z,942.19
2018-12-23T11:59:24.540Z,942.97
2018-12-23T12:00:24.444Z,942.65
2018-12-23T12:01:24.768Z,943.18
2018-12-23T12:02:24.491Z,943.04
2018-12-23T12:03:24.564Z,943.06
2018-12-23T12:04:24.470Z,942.84
2018-12-23T12:05:24.463Z,942.81
2018-12-23T12:06:24.478Z,942.74
2018-12-23T12:07:24.487Z,942.58
2018-12-23T12:08:24.472Z,942.49
2018-12-23T12:09:24.502Z,942.54
2018-12-23T12:10:24.442Z,942.47
2018-12-23T12:11:24.652Z,942.34
2018-12-23T12:12:24.466Z,942.28
2018-12-23T12:13:24.462Z,941.63
2018-12-23T12:14:24.457Z,941.29
2018-12-23T12:15:24.474Z,941.07
2018-12-23T12:16:24.468Z,941.02
2018-12-23T12:17:25.333Z,941.01
2018-12-23T12:18:24.471Z,940.59
2018-12-23T12:19:24.512Z,940.27
2018-12-23T12:20:24.490Z,940.11
2018-12-23T12:21:24.495Z,939.91
2018-12-23T12:22:24.472Z,940.03
2018-12-23T12:23:24.979Z,939.88
2018-12-23T12:24:24.501Z,940.58
2018-12-23T12:25:24.543Z,940.31
2018-12-23T12:26:24.512Z,940.64
2018-12-23T12:27:24.520Z,940.85
2018-12-23T12:28:24.640Z,940.47
2018-12-23T12:29:24.513Z,940.29
2018-12-23T12:30:24.561Z,940.42
2018-12-23T12:31:24.508Z,940.21
2018-12-23T12:32:24.517Z,939.76
2018-12-23T12:33:24.510Z,939.81
2018-12-23T12:34:24.500Z,939.66
2018-12-23T12:35:24.536Z,939.76
2018-12-23T12:36:24.525Z,939.66
2018-12-23T12:37:24.624Z,939.73
2018-12-23T12:38:24.570Z,939.41
2018-12-23T12:39:24.522Z,939.76
2018-12-23T12:40:24.522Z,939.69
2018-12-23T12:41:24.506Z,939.84
2018-12-23T12:42:24.488Z,940.87
2018-12-23T12:43:24.509Z,940.73
2018-12-23T12:44:24.599Z,940.32
2018-12-23T12:45:24.702Z,940.81
2018-12-23T12:46:24.655Z,940.7
2018-12-23T12:47:24.672Z,940.79
2018-12-23T12:48:24.578Z,941.26
2018-12-23T12:49:24.546Z,941.48
2018-12-23T12:50:24.572Z,941.66
2018-12-23T12:51:24.554Z,942.1
2018-12-23T12:52:24.629Z,941.94
2018-12-23T12:56:54.111Z,943.32
2018-12-23T12:57:54.058Z,943.8
2018-12-23T12:58:54.026Z,943.62
2018-12-23T12:59:53.981Z,944.01
2018-12-23T13:00:54.040Z,943.88
2018-12-23T13:01:54.101Z,944.23
2018-12-23T13:02:54.089Z,944.36
2018-12-23T13:03:54.028Z,944.62
2018-12-23T13:04:54.039Z,943.62
2018-12-23T13:05:53.997Z,943.59